Time,TemperatureF,DewpointF,PressureIn,WindDirection,WindDirectionDegrees,WindSpeedMPH,WindSpeedGustMPH,Humidity,HourlyPrecipIn,Conditions,Clouds,dailyrainin,SoftwareType,DateUTC
2013-10-24 00:01:00,38.0,31.7,30.11,West,276,1.2,1.2,78,0.00,RA,,0.00,WeatherDisplay:10.37,2013-10-24 04:01:00,
2013-10-24 00:02:00,38.0,31.7,30.11,West,276,3.0,3.0,78,0.00,RA,,0.00,WeatherDisplay:10.37,2013-10-24 04:02:00,
2013-10-24 00:04:00,38.0,31.7,30.11,West,276,3.5,3.5,78,0.00,RA,,0.00,WeatherDisplay:10.37,2013-10-24 04:04:00,
2013-10-24 00:05:00,38.0,31.7,30.11,West,276,2.3,0.0,78,0.00,RA,,0.00,WeatherDisplay:10.37,2013-10-24 04:05:00,
2013-10-24 00:07:00,38.0,31.7,30.11,West,276,3.5,3.5,78,0.00,RA,,0.00,WeatherDisplay:10.37,2013-10-24 04:07:00,
2013-10-24 00:12:00,38.0,31.7,30.11,West,276,4.0,4.0,78,0.00,OVC,,0.00,WeatherDisplay:10.37,2013-10-24 04:12:00,
2013-10-24 00:17:00,37.9,31.7,30.12,West,276,3.5,3.5,78,0.00,OVC,,0.00,WeatherDisplay:10.37,2013-10-24 04:17:00,
2013-10-24 00:22:00,37.9,31.7,30.11,West,276,2.3,2.3,78,0.00,OVC,,0.00,WeatherDisplay:10.37,2013-10-24 04:22:00,
2013-10-24 00:27:00,37.8,31.6,30.11,West,276,4.0,4.0,78,0.00,OVC,,0.00,WeatherDisplay:10.37,2013-10-24 04:27:00,
2013-10-24 00:32:00,37.7,31.8,30.11,West,276,0.0,0.0,79,0.00,OVC,,0.00,WeatherDisplay:10.37,2013-10-24 04:32:00,
2013-10-24 00:37:00,37.7,31.8,30.11,West,276,1.0,1.0,79,0.00,OVC,,0.00,WeatherDisplay:10.37,2013-10-24 04:37:00,
2013-10-24 00:42:00,37.5,31.6,30.11,West,276,1.2,0.0,79,0.00,OVC,,0.00,WeatherDisplay:10.37,2013-10-24 04:42:00,
2013-10-24 00:47:00,37.3,31.4,30.11,West,276,0.0,0.0,79,0.00,OVC,,0.00,WeatherDisplay:10.37,2013-10-24 04:47:00,
2013-10-24 00:52:00,37.2,31.3,30.12,West,276,0.0,0.0,79,0.00,OVC,,0.00,WeatherDisplay:10.37,2013-10-24 04:52:00,
2013-10-24 00:57:00,37.2,31.6,30.11,West,276,0.0,0.0,80,0.00,OVC,,0.00,WeatherDisplay:10.37,2013-10-24 04:57:00,
2013-10-24 01:02:00,37.3,31.7,30.11,West,276,0.0,0.0,80,0.00,BKN,,0.00,WeatherDisplay:10.37,2013-10-24 05:02:00,
2013-10-24 01:07:00,37.3,31.7,30.12,West,276,0.0,0.0,80,0.00,BKN,,0.00,WeatherDisplay:10.37,2013-10-24 05:07:00,
2013-10-24 01:12:00,37.3,31.7,30.11,West,276,2.3,2.3,80,0.00,BKN,,0.00,WeatherDisplay:10.37,2013-10-24 05:12:00,
2013-10-24 01:17:00,37.3,31.7,30.11,West,276,2.3,2.3,80,0.00,BKN,,0.00,WeatherDisplay:10.37,2013-10-24 05:17:00,
2013-10-24 01:22:00,37.4,31.8,30.11,West,276,1.0,0.0,80,0.00,BKN,,0.00,WeatherDisplay:10.37,2013-10-24 05:22:00,
2013-10-24 01:27:00,37.4,31.8,30.11,West,276,1.2,0.0,80,0.00,BKN,,0.00,WeatherDisplay:10.37,2013-10-24 05:27:00,
2013-10-24 01:32:00,37.4,31.8,30.12,West,276,0.0,0.0,80,0.00,BKN,,0.00,WeatherDisplay:10.37,2013-10-24 05:32:00,
2013-10-24 01:37:00,37.4,31.8,30.12,West,276,1.2,1.2,80,0.00,BKN,,0.00,WeatherDisplay:10.37,2013-10-24 05:37:00,
2013-10-24 01:42:00,37.4,31.8,30.12,West,276,1.2,0.0,80,0.00,BKN,,0.00,WeatherDisplay:10.37,2013-10-24 05:42:00,
2013-10-24 01:47:00,37.4,31.8,30.12,West,276,1.0,1.0,80,0.00,BKN,,0.00,WeatherDisplay:10.37,2013-10-24 05:47:00,
2013-10-24 01:53:00,37.5,31.9,30.12,West,276,2.0,2.0,80,0.00,BKN,,0.00,WeatherDisplay:10.37,2013-10-24 05:53:00,
2013-10-24 01:58:00,37.5,31.9,30.12,West,276,2.3,0.0,80,0.00,BKN,,0.00,WeatherDisplay:10.37,2013-10-24 05:58:00,
2013-10-24 02:03:00,37.5,32.2,30.12,West,276,1.2,0.0,81,0.00,OVC,,0.00,WeatherDisplay:10.37,2013-10-24 06:03:00,
2013-10-24 02:08:00,37.6,32.3,30.12,West,276,2.3,2.3,81,0.00,OVC,,0.00,WeatherDisplay:10.37,2013-10-24 06:08:00,
2013-10-24 02:13:00,37.7,32.4,30.12,West,276,2.3,2.3,81,0.00,OVC,,0.00,WeatherDisplay:10.37,2013-10-24 06:13:00,
2013-10-24 02:18:00,37.7,32.4,30.12,West,276,2.3,2.3,81,0.00,OVC,,0.00,WeatherDisplay:10.37,2013-10-24 06:18:00,
2013-10-24 02:23:00,37.7,32.1,30.12,West,276,3.0,3.0,80,0.00,OVC,,0.00,WeatherDisplay:10.37,2013-10-24 06:23:00,
2013-10-24 02:28:00,37.8,32.2,30.13,West,276,0.0,0.0,80,0.00,OVC,,0.00,WeatherDisplay:10.37,2013-10-24 06:28:00,
2013-10-24 02:33:00,37.8,32.2,30.13,West,276,2.3,0.0,80,0.00,OVC,,0.00,WeatherDisplay:10.37,2013-10-24 06:33:00,
2013-10-24 02:38:00,37.8,32.2,30.13,West,276,2.0,2.0,80,0.00,OVC,,0.00,WeatherDisplay:10.37,2013-10-24 06:38:00,
2013-10-24 02:43:00,37.8,32.2,30.13,West,276,3.0,0.0,80,0.00,OVC,,0.00,WeatherDisplay:10.37,2013-10-24 06:43:00,
2013-10-24 02:48:00,37.8,32.2,30.13,West,276,1.2,0.0,80,0.00,OVC,,0.00,WeatherDisplay:10.37,2013-10-24 06:48:00,
2013-10-24 02:53:00,37.8,32.2,30.13,West,276,1.2,1.2,80,0.00,OVC,,0.00,WeatherDisplay:10.37,2013-10-24 06:53:00,
2013-10-24 02:58:00,37.9,32.3,30.13,West,276,0.0,0.0,80,0.00,OVC,,0.00,WeatherDisplay:10.37,2013-10-24 06:58:00,
2013-10-24 03:03:00,37.9,32.3,30.14,West,276,2.0,2.0,80,0.00,OVC,,0.00,WeatherDisplay:10.37,2013-10-24 07:03:00,
2013-10-24 03:08:00,37.9,32.3,30.14,West,276,1.0,0.0,80,0.00,OVC,,0.00,WeatherDisplay:10.37,2013-10-24 07:08:00,
2013-10-24 03:13:00,37.9,32.3,30.14,West,276,3.5,0.0,80,0.00,OVC,,0.00,WeatherDisplay:10.37,2013-10-24 07:13:00,
2013-10-24 03:18:00,38.0,32.4,30.14,West,276,1.2,1.2,80,0.00,OVC,,0.00,WeatherDisplay:10.37,2013-10-24 07:18:00,
2013-10-24 03:23:00,38.0,32.4,30.14,West,276,1.2,1.2,80,0.00,OVC,,0.00,WeatherDisplay:10.37,2013-10-24 07:23:00,
2013-10-24 03:28:00,38.0,32.4,30.14,West,276,1.2,0.0,80,0.00,OVC,,0.00,WeatherDisplay:10.37,2013-10-24 07:28:00,
2013-10-24 03:33:00,38.0,32.4,30.14,West,276,2.3,0.0,80,0.00,OVC,,0.00,WeatherDisplay:10.37,2013-10-24 07:33:00,
2013-10-24 03:38:00,38.1,32.5,30.14,West,275,3.0,3.0,80,0.00,OVC,,0.00,WeatherDisplay:10.37,2013-10-24 07:38:00,
2013-10-24 03:43:00,38.1,32.2,30.13,West,276,2.3,2.3,79,0.00,OVC,,0.00,WeatherDisplay:10.37,2013-10-24 07:43:00,
2013-10-24 03:48:00,38.0,32.4,30.13,West,276,0.0,0.0,80,0.00,OVC,,0.00,WeatherDisplay:10.37,2013-10-24 07:48:00,
2013-10-24 03:53:00,38.0,32.4,30.13,West,276,4.0,4.0,80,0.00,OVC,,0.00,WeatherDisplay:10.37,2013-10-24 07:53:00,
2013-10-24 03:58:00,38.0,32.4,30.14,West,276,0.0,0.0,80,0.00,OVC,,0.00,WeatherDisplay:10.37,2013-10-24 07:58:00,
2013-10-24 04:03:00,37.9,32.0,30.14,West,275,0.0,0.0,79,0.00,OVC,,0.00,WeatherDisplay:10.37,2013-10-24 08:03:00,
2013-10-24 04:08:00,37.9,32.0,30.14,West,275,5.0,5.0,79,0.00,OVC,,0.00,WeatherDisplay:10.37,2013-10-24 08:08:00,
2013-10-24 04:13:00,37.9,32.0,30.14,West,276,1.2,0.0,79,0.00,OVC,,0.00,WeatherDisplay:10.37,2013-10-24 08:13:00,
2013-10-24 04:18:00,38.0,32.1,30.14,West,276,1.2,0.0,79,0.00,OVC,,0.00,WeatherDisplay:10.37,2013-10-24 08:18:00,
2013-10-24 04:23:00,37.9,32.0,30.14,West,276,2.3,2.3,79,0.00,OVC,,0.00,WeatherDisplay:10.37,2013-10-24 08:23:00,
2013-10-24 04:28:00,37.9,32.0,30.14,West,275,3.5,0.0,79,0.00,OVC,,0.00,WeatherDisplay:10.37,2013-10-24 08:28:00,
2013-10-24 04:33:00,37.9,32.0,30.14,West,275,1.2,1.2,79,0.00,OVC,,0.00,WeatherDisplay:10.37,2013-10-24 08:33:00,
2013-10-24 04:38:00,37.9,32.0,30.14,West,276,1.2,0.0,79,0.00,OVC,,0.00,WeatherDisplay:10.37,2013-10-24 08:38:00,
2013-10-24 04:43:00,37.9,32.3,30.14,West,276,1.0,1.0,80,0.00,OVC,,0.00,WeatherDisplay:10.37,2013-10-24 08:43:00,
2013-10-24 04:48:00,37.8,32.2,30.14,West,276,0.0,0.0,80,0.00,OVC,,0.00,WeatherDisplay:10.37,2013-10-24 08:48:00,
2013-10-24 04:53:00,37.8,32.2,30.14,West,276,3.5,0.0,80,0.00,OVC,,0.00,WeatherDisplay:10.37,2013-10-24 08:53:00,
2013-10-24 04:58:00,37.8,32.2,30.14,West,275,4.0,4.0,80,0.00,OVC,,0.00,WeatherDisplay:10.37,2013-10-24 08:58:00,
2013-10-24 05:03:00,37.8,32.2,30.14,West,275,1.2,1.2,80,0.00,OVC,,0.00,WeatherDisplay:10.37,2013-10-24 09:03:00,
2013-10-24 05:08:00,37.8,32.2,30.14,West,276,2.3,2.3,80,0.00,OVC,,0.00,WeatherDisplay:10.37,2013-10-24 09:08:00,
2013-10-24 05:13:00,37.8,32.2,30.14,West,276,0.0,0.0,80,0.00,OVC,,0.00,WeatherDisplay:10.37,2013-10-24 09:13:00,
2013-10-24 05:18:00,37.8,32.2,30.14,West,276,2.3,2.3,80,0.00,OVC,,0.00,WeatherDisplay:10.37,2013-10-24 09:18:00,
2013-10-24 05:23:00,37.8,32.2,30.14,West,275,3.0,3.0,80,0.00,OVC,,0.00,WeatherDisplay:10.37,2013-10-24 09:23:00,
2013-10-24 05:28:00,37.8,32.2,30.14,West,276,1.2,0.0,80,0.00,OVC,,0.00,WeatherDisplay:10.37,2013-10-24 09:28:00,
2013-10-24 05:33:00,37.8,32.2,30.14,West,276,0.0,0.0,80,0.00,OVC,,0.00,WeatherDisplay:10.37,2013-10-24 09:33:00,
2013-10-24 05:38:00,37.8,32.2,30.15,West,276,1.2,1.2,80,0.00,OVC,,0.00,WeatherDisplay:10.37,2013-10-24 09:38:00,
2013-10-24 05:43:00,37.8,32.2,30.14,West,276,2.3,2.3,80,0.00,OVC,,0.00,WeatherDisplay:10.37,2013-10-24 09:43:00,
2013-10-24 05:48:00,37.8,32.2,30.15,West,275,0.0,0.0,80,0.00,OVC,,0.00,WeatherDisplay:10.37,2013-10-24 09:48:00,
2013-10-24 05:53:00,37.8,32.2,30.15,West,276,5.0,5.0,80,0.00,OVC,,0.00,WeatherDisplay:10.37,2013-10-24 09:53:00,
2013-10-24 05:58:00,37.8,31.9,30.15,West,276,2.3,2.3,79,0.00,OVC,,0.00,WeatherDisplay:10.37,2013-10-24 09:58:00,
2013-10-24 06:03:00,37.8,31.9,30.15,West,276,0.0,0.0,79,0.00,OVC,,0.00,WeatherDisplay:10.37,2013-10-24 10:03:00,
2013-10-24 06:08:00,37.8,31.9,30.15,West,276,2.3,2.3,79,0.00,OVC,,0.00,WeatherDisplay:10.37,2013-10-24 10:08:00,
2013-10-24 06:13:00,37.9,31.7,30.15,West,276,2.0,2.0,78,0.00,OVC,,0.00,WeatherDisplay:10.37,2013-10-24 10:13:00,
2013-10-24 06:18:00,37.9,31.7,30.16,West,276,2.3,2.3,78,0.00,OVC,,0.00,WeatherDisplay:10.37,2013-10-24 10:18:00,
2013-10-24 06:23:00,37.9,32.0,30.16,West,276,0.0,0.0,79,0.00,OVC,,0.00,WeatherDisplay:10.37,2013-10-24 10:23:00,
2013-10-24 06:28:00,37.8,31.9,30.16,West,276,0.0,0.0,79,0.00,OVC,,0.00,WeatherDisplay:10.37,2013-10-24 10:28:00,
2013-10-24 06:33:00,37.8,31.9,30.16,West,276,3.0,3.0,79,0.00,OVC,,0.00,WeatherDisplay:10.37,2013-10-24 10:33:00,
2013-10-24 06:38:00,37.8,31.9,30.16,West,275,3.5,3.5,79,0.00,OVC,,0.00,WeatherDisplay:10.37,2013-10-24 10:38:00,
2013-10-24 06:43:00,37.8,31.9,30.16,West,275,0.0,0.0,79,0.00,OVC,,0.00,WeatherDisplay:10.37,2013-10-24 10:43:00,
2013-10-24 06:48:00,37.8,31.9,30.16,West,276,1.2,0.0,79,0.00,OVC,,0.00,WeatherDisplay:10.37,2013-10-24 10:48:00,
2013-10-24 06:53:00,37.7,31.8,30.16,West,276,1.2,1.2,79,0.00,OVC,,0.00,WeatherDisplay:10.37,2013-10-24 10:53:00,
2013-10-24 06:58:00,37.7,32.1,30.16,West,276,1.2,1.2,80,0.00,OVC,,0.00,WeatherDisplay:10.37,2013-10-24 10:58:00,
2013-10-24 07:03:00,37.7,32.1,30.16,West,276,2.3,2.3,80,0.00,OVC,,0.00,WeatherDisplay:10.37,2013-10-24 11:03:00,
2013-10-24 07:08:00,37.7,32.1,30.16,West,275,1.2,0.0,80,0.00,OVC,,0.00,WeatherDisplay:10.37,2013-10-24 11:08:00,
2013-10-24 07:13:00,37.7,32.1,30.16,West,276,2.0,2.0,80,0.00,OVC,,0.00,WeatherDisplay:10.37,2013-10-24 11:13:00,
2013-10-24 07:18:00,37.7,32.1,30.16,West,276,1.0,1.0,80,0.00,OVC,,0.00,WeatherDisplay:10.37,2013-10-24 11:18:00,
2013-10-24 07:23:00,37.6,32.0,30.16,West,276,3.5,3.5,80,0.00,OVC,,0.00,WeatherDisplay:10.37,2013-10-24 11:23:00,
2013-10-24 07:28:00,37.7,32.1,30.16,West,275,2.0,2.0,80,0.00,OVC,,0.00,WeatherDisplay:10.37,2013-10-24 11:28:00,
2013-10-24 07:33:00,37.7,32.1,30.16,West,276,1.2,0.0,80,0.00,OVC,,0.00,WeatherDisplay:10.37,2013-10-24 11:33:00,
2013-10-24 07:38:00,37.7,32.1,30.16,West,276,2.3,2.3,80,0.00,OVC,,0.00,WeatherDisplay:10.37,2013-10-24 11:38:00,
2013-10-24 07:43:00,37.6,32.0,30.16,West,276,2.3,2.3,80,0.00,OVC,,0.00,WeatherDisplay:10.37,2013-10-24 11:43:00,
2013-10-24 07:48:00,37.6,32.0,30.16,West,276,1.0,1.0,80,0.00,OVC,,0.00,WeatherDisplay:10.37,2013-10-24 11:48:00,
2013-10-24 07:53:00,37.6,32.0,30.16,West,276,0.0,0.0,80,0.00,OVC,,0.00,WeatherDisplay:10.37,2013-10-24 11:53:00,
2013-10-24 07:58:00,37.6,32.0,30.16,West,275,3.5,3.5,80,0.00,OVC,,0.00,WeatherDisplay:10.37,2013-10-24 11:58:00,
2013-10-24 08:03:00,37.7,32.1,30.16,West,276,2.3,2.3,80,0.00,OVC,,0.00,WeatherDisplay:10.37,2013-10-24 12:03:00,
2013-10-24 08:08:00,37.7,32.1,30.16,West,276,0.0,0.0,80,0.00,OVC,,0.00,WeatherDisplay:10.37,2013-10-24 12:08:00,
2013-10-24 08:13:00,37.7,32.1,30.16,West,276,2.3,2.3,80,0.00,OVC,,0.00,WeatherDisplay:10.37,2013-10-24 12:13:00,
2013-10-24 08:18:00,37.7,31.8,30.17,West,276,0.0,0.0,79,0.00,OVC,,0.00,WeatherDisplay:10.37,2013-10-24 12:18:00,
2013-10-24 08:23:00,37.8,32.2,30.17,West,275,2.3,0.0,80,0.00,OVC,,0.00,WeatherDisplay:10.37,2013-10-24 12:23:00,
2013-10-24 08:28:00,37.8,31.9,30.17,West,276,0.0,0.0,79,0.00,OVC,,0.00,WeatherDisplay:10.37,2013-10-24 12:28:00,
2013-10-24 08:33:00,37.8,31.9,30.17,West,276,0.0,0.0,79,0.00,OVC,,0.00,WeatherDisplay:10.37,2013-10-24 12:33:00,
2013-10-24 08:38:00,37.9,32.3,30.17,West,275,2.0,2.0,80,0.00,OVC,,0.00,WeatherDisplay:10.37,2013-10-24 12:38:00,
2013-10-24 08:43:00,37.9,32.3,30.18,West,276,1.0,1.0,80,0.00,OVC,,0.00,WeatherDisplay:10.37,2013-10-24 12:43:00,
2013-10-24 08:48:00,37.9,32.3,30.18,West,276,3.0,3.0,80,0.00,OVC,,0.00,WeatherDisplay:10.37,2013-10-24 12:48:00,
2013-10-24 08:53:00,38.0,32.4,30.18,West,276,0.0,0.0,80,0.00,OVC,,0.00,WeatherDisplay:10.37,2013-10-24 12:53:00,
2013-10-24 08:58:00,38.1,32.2,30.18,West,276,0.0,0.0,79,0.00,OVC,,0.00,WeatherDisplay:10.37,2013-10-24 12:58:00,
2013-10-24 09:03:00,38.2,32.3,30.18,West,275,4.0,4.0,79,0.00,OVC,,0.00,WeatherDisplay:10.37,2013-10-24 13:03:00,
2013-10-24 09:08:00,38.2,32.6,30.18,West,276,0.0,0.0,80,0.00,OVC,,0.00,WeatherDisplay:10.37,2013-10-24 13:08:00,
2013-10-24 09:13:00,38.3,32.4,30.18,West,276,2.3,2.3,79,0.00,OVC,,0.00,WeatherDisplay:10.37,2013-10-24 13:13:00,
2013-10-24 09:18:00,38.4,32.5,30.19,West,275,3.5,3.5,79,0.00,OVC,,0.00,WeatherDisplay:10.37,2013-10-24 13:18:00,
2013-10-24 09:23:00,38.6,32.6,30.19,West,275,2.0,2.0,79,0.00,OVC,,0.00,WeatherDisplay:10.37,2013-10-24 13:23:00,
2013-10-24 09:28:00,38.8,32.8,30.19,West,275,4.0,4.0,79,0.00,OVC,,0.00,WeatherDisplay:10.37,2013-10-24 13:28:00,
2013-10-24 09:33:00,38.9,32.6,30.19,West,275,2.3,2.3,78,0.00,OVC,,0.00,WeatherDisplay:10.37,2013-10-24 13:33:00,
2013-10-24 09:38:00,39.1,32.5,30.19,West,275,2.0,2.0,77,0.00,OVC,,0.00,WeatherDisplay:10.37,2013-10-24 13:38:00,
2013-10-24 09:43:00,39.4,32.8,30.20,West,275,3.0,3.0,77,0.00,OVC,,0.00,WeatherDisplay:10.37,2013-10-24 13:43:00,
2013-10-24 09:48:00,39.6,32.7,30.20,West,276,5.0,5.0,76,0.00,OVC,,0.00,WeatherDisplay:10.37,2013-10-24 13:48:00,
2013-10-24 09:53:00,39.8,32.5,30.20,West,275,4.6,4.6,75,0.00,OVC,,0.00,WeatherDisplay:10.37,2013-10-24 13:53:00,
2013-10-24 09:58:00,40.0,32.4,30.20,West,274,4.6,4.6,74,0.00,OVC,,0.00,WeatherDisplay:10.37,2013-10-24 13:58:00,
2013-10-24 10:03:00,40.2,32.6,30.20,West,274,1.0,1.0,74,0.00,OVC,,0.00,WeatherDisplay:10.37,2013-10-24 14:03:00,
2013-10-24 10:08:00,40.4,32.1,30.20,WSW,248,5.0,5.0,72,0.00,OVC,,0.00,WeatherDisplay:10.37,2013-10-24 14:08:00,
2013-10-24 10:13:00,40.4,32.1,30.20,WSW,249,1.2,1.2,72,0.00,OVC,,0.00,WeatherDisplay:10.37,2013-10-24 14:13:00,
2013-10-24 10:18:00,40.4,31.7,30.20,WSW,251,6.0,6.0,71,0.00,OVC,,0.00,WeatherDisplay:10.37,2013-10-24 14:18:00,
2013-10-24 10:23:00,40.6,31.9,30.20,WSW,251,3.0,3.0,71,0.00,OVC,,0.00,WeatherDisplay:10.37,2013-10-24 14:23:00,
2013-10-24 10:28:00,40.8,32.1,30.20,WSW,251,3.5,3.5,71,0.00,OVC,,0.00,WeatherDisplay:10.37,2013-10-24 14:28:00,
2013-10-24 10:33:00,41.0,31.6,30.20,WSW,249,4.6,4.6,69,0.00,OVC,,0.00,WeatherDisplay:10.37,2013-10-24 14:33:00,
2013-10-24 10:38:00,41.1,31.7,30.20,WSW,249,2.3,0.0,69,0.00,OVC,,0.00,WeatherDisplay:10.37,2013-10-24 14:38:00,
2013-10-24 10:44:00,41.2,31.4,30.20,WSW,249,8.1,8.1,68,0.00,OVC,,0.00,WeatherDisplay:10.37,2013-10-24 14:44:00,
2013-10-24 10:49:00,41.2,30.7,30.20,WSW,249,3.5,3.5,66,0.00,OVC,,0.00,WeatherDisplay:10.37,2013-10-24 14:49:00,
2013-10-24 10:54:00,41.4,31.3,30.20,WSW,251,2.0,2.0,67,0.00,OVC,,0.00,WeatherDisplay:10.37,2013-10-24 14:54:00,
2013-10-24 10:59:00,41.8,31.6,30.20,West,267,3.0,3.0,67,0.00,OVC,,0.00,WeatherDisplay:10.37,2013-10-24 14:59:00,
2013-10-24 11:04:00,41.9,31.0,30.20,West,266,2.3,2.3,65,0.00,OVC,,0.00,WeatherDisplay:10.37,2013-10-24 15:04:00,
2013-10-24 11:09:00,42.1,30.8,30.20,West,264,4.0,4.0,64,0.00,OVC,,0.00,WeatherDisplay:10.37,2013-10-24 15:09:00,
2013-10-24 11:14:00,42.0,30.3,30.20,West,265,5.0,5.0,63,0.00,OVC,,0.00,WeatherDisplay:10.37,2013-10-24 15:14:00,
2013-10-24 11:19:00,42.1,30.8,30.20,West,265,6.0,6.0,64,0.00,OVC,,0.00,WeatherDisplay:10.37,2013-10-24 15:19:00,
2013-10-24 11:24:00,42.4,31.5,30.21,West,265,2.3,2.3,65,0.00,OVC,,0.00,WeatherDisplay:10.37,2013-10-24 15:24:00,
2013-10-24 11:29:00,42.5,31.2,30.21,West,264,5.0,5.0,64,0.00,OVC,,0.00,WeatherDisplay:10.37,2013-10-24 15:29:00,
2013-10-24 11:34:00,42.5,31.6,30.21,West,266,2.3,2.3,65,0.00,OVC,,0.00,WeatherDisplay:10.37,2013-10-24 15:34:00,
2013-10-24 11:39:00,42.6,31.3,30.20,WSW,255,5.0,5.0,64,0.00,OVC,,0.00,WeatherDisplay:10.37,2013-10-24 15:39:00,
2013-10-24 11:44:00,42.5,31.2,30.20,West,281,5.0,5.0,64,0.00,OVC,,0.00,WeatherDisplay:10.37,2013-10-24 15:44:00,
2013-10-24 11:49:00,42.5,31.6,30.21,West,270,2.3,2.3,65,0.00,OVC,,0.00,WeatherDisplay:10.37,2013-10-24 15:49:00,
2013-10-24 11:54:00,42.5,31.6,30.21,West,261,1.2,0.0,65,0.00,OVC,,0.00,WeatherDisplay:10.37,2013-10-24 15:54:00,
2013-10-24 11:59:00,42.7,31.4,30.21,West,263,4.0,4.0,64,0.00,OVC,,0.00,WeatherDisplay:10.37,2013-10-24 15:59:00,
2013-10-24 12:04:00,42.7,31.4,30.21,West,261,3.5,3.5,64,0.00,OVC,,0.00,WeatherDisplay:10.37,2013-10-24 16:04:00,
2013-10-24 12:09:00,42.7,31.0,30.21,West,261,3.5,3.5,63,0.00,OVC,,0.00,WeatherDisplay:10.37,2013-10-24 16:09:00,
2013-10-24 12:14:00,43.1,31.4,30.21,WSW,245,4.0,4.0,63,0.00,OVC,,0.00,WeatherDisplay:10.37,2013-10-24 16:14:00,
2013-10-24 12:19:00,43.1,31.4,30.21,WSW,257,6.0,6.0,63,0.00,OVC,,0.00,WeatherDisplay:10.37,2013-10-24 16:19:00,
2013-10-24 12:24:00,43.4,31.6,30.21,West,259,7.0,7.0,63,0.00,OVC,,0.00,WeatherDisplay:10.37,2013-10-24 16:24:00,
2013-10-24 12:29:00,43.6,31.8,30.20,WSW,256,4.6,4.6,63,0.00,OVC,,0.00,WeatherDisplay:10.37,2013-10-24 16:29:00,
2013-10-24 12:34:00,43.8,32.4,30.21,WSW,257,2.3,2.3,64,0.00,OVC,,0.00,WeatherDisplay:10.37,2013-10-24 16:34:00,
2013-10-24 12:39:00,44.3,32.5,30.21,WSW,257,3.0,0.0,63,0.00,OVC,,0.00,WeatherDisplay:10.37,2013-10-24 16:39:00,
2013-10-24 12:44:00,44.3,32.1,30.21,NNW,328,5.0,5.0,62,0.00,OVC,,0.00,WeatherDisplay:10.37,2013-10-24 16:44:00,
2013-10-24 12:49:00,44.1,31.5,30.20,West,264,6.0,6.0,61,0.00,OVC,,0.00,WeatherDisplay:10.37,2013-10-24 16:49:00,
2013-10-24 12:54:00,44.0,32.2,30.20,WNW,282,4.0,4.0,63,0.00,OVC,,0.00,WeatherDisplay:10.37,2013-10-24 16:54:00,
2013-10-24 12:59:00,44.1,32.3,30.20,NW,325,4.0,4.0,63,0.00,OVC,,0.00,WeatherDisplay:10.37,2013-10-24 16:59:00,
2013-10-24 13:04:00,44.1,32.3,30.20,WSW,253,8.0,8.0,63,0.00,OVC,,0.00,WeatherDisplay:10.37,2013-10-24 17:04:00,
2013-10-24 13:09:00,44.0,31.8,30.20,WSW,253,8.1,8.1,62,0.00,OVC,,0.00,WeatherDisplay:10.37,2013-10-24 17:09:00,
2013-10-24 13:14:00,44.0,31.8,30.20,WSW,252,6.0,6.0,62,0.00,OVC,,0.00,WeatherDisplay:10.37,2013-10-24 17:14:00,
2013-10-24 13:19:00,44.1,31.9,30.20,West,268,3.0,3.0,62,0.00,OVC,,0.00,WeatherDisplay:10.37,2013-10-24 17:19:00,
2013-10-24 13:24:00,44.2,32.0,30.20,West,270,2.3,2.3,62,0.00,OVC,,0.00,WeatherDisplay:10.37,2013-10-24 17:24:00,
2013-10-24 13:29:00,44.2,32.4,30.20,West,274,3.5,3.5,63,0.00,OVC,,0.00,WeatherDisplay:10.37,2013-10-24 17:29:00,
2013-10-24 13:34:00,44.2,32.8,30.20,West,278,2.3,2.3,64,0.00,OVC,,0.00,WeatherDisplay:10.37,2013-10-24 17:34:00,
2013-10-24 13:39:00,44.4,32.6,30.20,West,267,9.0,9.0,63,0.00,OVC,,0.00,WeatherDisplay:10.37,2013-10-24 17:39:00,
2013-10-24 13:44:00,44.3,32.1,30.19,WSW,256,5.8,5.8,62,0.00,OVC,,0.00,WeatherDisplay:10.37,2013-10-24 17:44:00,
2013-10-24 13:49:00,44.5,32.3,30.19,NW,305,6.0,6.0,62,0.00,OVC,,0.00,WeatherDisplay:10.37,2013-10-24 17:49:00,
2013-10-24 13:54:00,44.3,32.1,30.19,WNW,294,3.5,3.5,62,0.00,OVC,,0.00,WeatherDisplay:10.37,2013-10-24 17:54:00,
2013-10-24 13:59:00,44.1,31.9,30.19,WNW,286,2.3,2.3,62,0.00,OVC,,0.00,WeatherDisplay:10.37,2013-10-24 17:59:00,
2013-10-24 14:04:00,44.1,32.3,30.19,WNW,299,5.0,5.0,63,0.00,OVC,,0.00,WeatherDisplay:10.37,2013-10-24 18:04:00,
2013-10-24 14:09:00,44.0,32.2,30.19,WNW,295,3.5,3.5,63,0.00,OVC,,0.00,WeatherDisplay:10.37,2013-10-24 18:09:00,
2013-10-24 14:14:00,44.0,32.2,30.19,WNW,283,3.5,3.5,63,0.00,OVC,,0.00,WeatherDisplay:10.37,2013-10-24 18:14:00,
2013-10-24 14:19:00,44.1,32.7,30.19,WNW,284,2.3,2.3,64,0.00,OVC,,0.00,WeatherDisplay:10.37,2013-10-24 18:19:00,
2013-10-24 14:24:00,44.1,32.7,30.19,West,274,3.5,3.5,64,0.00,OVC,,0.00,WeatherDisplay:10.37,2013-10-24 18:24:00,
2013-10-24 14:29:00,44.2,33.2,30.19,WNW,286,4.6,4.6,65,0.00,OVC,,0.00,WeatherDisplay:10.37,2013-10-24 18:29:00,
2013-10-24 14:34:00,44.3,33.3,30.18,WNW,286,2.3,2.3,65,0.00,OVC,,0.00,WeatherDisplay:10.37,2013-10-24 18:34:00,
2013-10-24 14:39:00,44.3,32.5,30.19,WNW,288,3.5,3.5,63,0.00,OVC,,0.00,WeatherDisplay:10.37,2013-10-24 18:39:00,
2013-10-24 14:44:00,44.3,32.9,30.18,WNW,288,2.3,2.3,64,0.00,OVC,,0.00,WeatherDisplay:10.37,2013-10-24 18:44:00,
2013-10-24 14:49:00,44.2,32.4,30.18,SW,232,5.0,5.0,63,0.00,OVC,,0.00,WeatherDisplay:10.37,2013-10-24 18:49:00,
2013-10-24 14:54:00,44.3,32.5,30.18,SW,233,3.5,0.0,63,0.00,OVC,,0.00,WeatherDisplay:10.37,2013-10-24 18:54:00,
2013-10-24 14:59:00,44.7,33.3,30.18,SW,233,1.2,1.2,64,0.00,OVC,,0.00,WeatherDisplay:10.37,2013-10-24 18:59:00,
2013-10-24 15:04:00,44.9,32.7,30.18,WSW,249,4.0,4.0,62,0.00,OVC,,0.00,WeatherDisplay:10.37,2013-10-24 19:04:00,
2013-10-24 15:09:00,44.9,32.7,30.18,WSW,248,2.3,2.3,62,0.00,OVC,,0.00,WeatherDisplay:10.37,2013-10-24 19:09:00,
2013-10-24 15:14:00,44.9,32.7,30.18,WSW,253,3.5,3.5,62,0.00,OVC,,0.00,WeatherDisplay:10.37,2013-10-24 19:14:00,
2013-10-24 15:19:00,45.0,32.8,30.18,WSW,253,6.0,6.0,62,0.00,OVC,,0.00,WeatherDisplay:10.37,2013-10-24 19:19:00,
2013-10-24 15:24:00,45.0,32.3,30.18,WSW,253,8.0,8.0,61,0.00,OVC,,0.00,WeatherDisplay:10.37,2013-10-24 19:24:00,
2013-10-24 15:29:00,45.2,32.1,30.18,WSW,239,8.1,8.1,60,0.00,OVC,,0.00,WeatherDisplay:10.37,2013-10-24 19:29:00,
2013-10-24 15:34:00,45.4,32.7,30.18,WSW,239,4.0,4.0,61,0.00,OVC,,0.00,WeatherDisplay:10.37,2013-10-24 19:34:00,
2013-10-24 15:39:00,45.8,32.7,30.18,WSW,239,2.3,2.3,60,0.00,OVC,,0.00,WeatherDisplay:10.37,2013-10-24 19:39:00,
2013-10-24 15:44:00,46.1,33.0,30.18,WSW,239,6.0,6.0,60,0.00,OVC,,0.00,WeatherDisplay:10.37,2013-10-24 19:44:00,
2013-10-24 15:49:00,46.0,32.9,30.18,WSW,239,1.2,0.0,60,0.00,OVC,,0.00,WeatherDisplay:10.37,2013-10-24 19:49:00,
2013-10-24 15:54:00,46.1,32.6,30.18,West,261,6.0,6.0,59,0.00,OVC,,0.00,WeatherDisplay:10.37,2013-10-24 19:54:00,
2013-10-24 15:59:00,45.7,32.2,30.18,WSW,251,8.1,8.1,59,0.00,OVC,,0.00,WeatherDisplay:10.37,2013-10-24 19:59:00,
2013-10-24 16:04:00,45.5,32.0,30.18,WSW,251,5.0,5.0,59,0.00,OVC,,0.00,WeatherDisplay:10.37,2013-10-24 20:04:00,
2013-10-24 16:09:00,45.6,32.5,30.18,WSW,250,5.8,5.8,60,0.00,OVC,,0.00,WeatherDisplay:10.37,2013-10-24 20:09:00,
2013-10-24 16:14:00,45.7,33.0,30.18,WSW,251,2.3,2.3,61,0.00,OVC,,0.00,WeatherDisplay:10.37,2013-10-24 20:14:00,
2013-10-24 16:19:00,45.7,32.2,30.18,WSW,252,4.0,4.0,59,0.00,OVC,,0.00,WeatherDisplay:10.37,2013-10-24 20:19:00,
2013-10-24 16:24:00,45.6,31.7,30.18,West,278,6.9,6.9,58,0.00,OVC,,0.00,WeatherDisplay:10.37,2013-10-24 20:24:00,
2013-10-24 16:29:00,45.4,31.9,30.18,North,2,6.9,6.9,59,0.00,OVC,,0.00,WeatherDisplay:10.37,2013-10-24 20:29:00,
2013-10-24 16:34:00,45.1,32.0,30.18,North,353,3.0,3.0,60,0.00,OVC,,0.00,WeatherDisplay:10.37,2013-10-24 20:34:00,
2013-10-24 16:39:00,44.8,31.8,30.19,West,280,6.9,6.9,60,0.00,OVC,,0.00,WeatherDisplay:10.37,2013-10-24 20:39:00,
2013-10-24 16:44:00,44.4,31.8,30.19,NNE,12,9.2,9.2,61,0.00,OVC,,0.00,WeatherDisplay:10.37,2013-10-24 20:44:00,
2013-10-24 16:49:00,43.5,32.9,30.20,NNW,339,8.1,8.1,66,0.00,OVC,,0.00,WeatherDisplay:10.37,2013-10-24 20:49:00,
2013-10-24 16:54:00,42.0,33.6,30.21,WNW,299,7.0,7.0,72,0.00,OVC,,0.00,WeatherDisplay:10.37,2013-10-24 20:54:00,
2013-10-24 16:59:00,41.1,33.8,30.21,North,7,16.1,16.1,75,0.01,RA,,0.01,WeatherDisplay:10.37,2013-10-24 20:59:00,
2013-10-24 17:04:00,40.6,34.0,30.21,NW,326,11.5,11.5,77,0.01,-RA,,0.01,WeatherDisplay:10.37,2013-10-24 21:04:00,
2013-10-24 17:09:00,40.4,34.4,30.21,West,272,3.5,3.5,79,0.01,-RA,,0.01,WeatherDisplay:10.37,2013-10-24 21:09:00,
2013-10-24 17:14:00,40.0,34.0,30.22,North,357,9.2,9.2,79,0.01,-RA,,0.01,WeatherDisplay:10.37,2013-10-24 21:14:00,
2013-10-24 17:19:00,39.7,33.7,30.22,NNE,22,8.1,8.1,79,0.01,-RA,,0.01,WeatherDisplay:10.37,2013-10-24 21:19:00,
2013-10-24 17:24:00,39.6,33.9,30.22,NNE,22,6.0,6.0,80,0.01,-RA,,0.01,WeatherDisplay:10.37,2013-10-24 21:24:00,
2013-10-24 17:29:00,39.5,33.8,30.23,NW,318,6.9,6.9,80,0.01,-RA,,0.01,WeatherDisplay:10.37,2013-10-24 21:29:00,
2013-10-24 17:34:00,38.4,32.5,30.23,West,280,8.1,8.1,79,0.01,-RA,,0.01,WeatherDisplay:10.37,2013-10-24 21:34:00,
2013-10-24 17:39:00,37.3,31.7,30.24,North,357,6.0,6.0,80,0.01,-RA,,0.01,WeatherDisplay:10.37,2013-10-24 21:39:00,
2013-10-24 17:44:00,36.8,31.2,30.24,WNW,295,8.1,8.1,80,0.01,-RA,,0.01,WeatherDisplay:10.37,2013-10-24 21:44:00,
2013-10-24 17:49:00,36.4,30.8,30.24,NW,322,10.4,10.4,80,0.01,-RA,,0.01,WeatherDisplay:10.37,2013-10-24 21:49:00,
2013-10-24 17:54:00,36.2,30.3,30.24,NW,316,5.8,5.8,79,0.01,-RA,,0.01,WeatherDisplay:10.37,2013-10-24 21:54:00,
2013-10-24 17:59:00,36.1,29.9,30.25,North,2,6.0,6.0,78,0.00,-RA,,0.01,WeatherDisplay:10.37,2013-10-24 21:59:00,
2013-10-24 18:04:00,36.0,29.2,30.25,NW,325,9.2,9.2,76,0.00,OVC,,0.01,WeatherDisplay:10.37,2013-10-24 22:04:00,
2013-10-24 18:09:00,36.0,28.8,30.25,West,279,10.0,10.0,75,0.00,OVC,,0.01,WeatherDisplay:10.37,2013-10-24 22:09:00,
2013-10-24 18:14:00,35.8,28.3,30.25,WNW,286,9.2,9.2,74,0.00,OVC,,0.01,WeatherDisplay:10.37,2013-10-24 22:14:00,
2013-10-24 18:19:00,35.7,28.2,30.25,NNW,338,9.2,9.2,74,0.00,OVC,,0.01,WeatherDisplay:10.37,2013-10-24 22:19:00,
2013-10-24 18:24:00,35.6,28.5,30.26,NE,55,7.0,7.0,75,0.00,OVC,,0.01,WeatherDisplay:10.37,2013-10-24 22:24:00,
2013-10-24 18:29:00,35.5,28.7,30.26,WNW,293,5.0,5.0,76,0.00,OVC,,0.01,WeatherDisplay:10.37,2013-10-24 22:29:00,
2013-10-24 18:34:00,35.4,28.6,30.26,NNE,24,10.0,10.0,76,0.00,OVC,,0.01,WeatherDisplay:10.37,2013-10-24 22:34:00,
2013-10-24 18:39:00,35.4,28.6,30.26,North,2,6.0,6.0,76,0.00,OVC,,0.01,WeatherDisplay:10.37,2013-10-24 22:39:00,
2013-10-24 18:44:00,35.4,28.6,30.26,West,266,8.0,8.0,76,0.00,OVC,,0.01,WeatherDisplay:10.37,2013-10-24 22:44:00,
2013-10-24 18:49:00,35.3,28.5,30.26,NNE,16,8.1,8.1,76,0.00,OVC,,0.01,WeatherDisplay:10.37,2013-10-24 22:49:00,
2013-10-24 18:54:00,35.3,28.5,30.26,NNE,17,4.0,4.0,76,0.00,OVC,,0.01,WeatherDisplay:10.37,2013-10-24 22:54:00,
2013-10-24 18:59:00,35.3,28.5,30.27,NNE,27,8.0,8.0,76,0.00,OVC,,0.01,WeatherDisplay:10.37,2013-10-24 22:59:00,
2013-10-24 19:04:00,35.3,28.5,30.27,NNE,16,5.0,5.0,76,0.00,OVC,,0.01,WeatherDisplay:10.37,2013-10-24 23:04:00,
2013-10-24 19:09:00,35.2,28.4,30.27,North,2,3.5,3.5,76,0.00,OVC,,0.01,WeatherDisplay:10.37,2013-10-24 23:09:00,
2013-10-24 19:14:00,35.1,28.3,30.27,North,2,4.0,4.0,76,0.00,OVC,,0.01,WeatherDisplay:10.37,2013-10-24 23:14:00,
2013-10-24 19:19:00,35.0,28.2,30.27,NNE,16,4.0,4.0,76,0.00,OVC,,0.01,WeatherDisplay:10.37,2013-10-24 23:19:00,
2013-10-24 19:24:00,34.9,28.1,30.28,WNW,295,6.9,6.9,76,0.00,OVC,,0.01,WeatherDisplay:10.37,2013-10-24 23:24:00,
2013-10-24 19:29:00,34.8,28.0,30.28,WNW,294,2.3,2.3,76,0.00,OVC,,0.01,WeatherDisplay:10.37,2013-10-24 23:29:00,
2013-10-24 19:34:00,34.7,27.6,30.28,WNW,293,2.3,2.3,75,0.00,OVC,,0.01,WeatherDisplay:10.37,2013-10-24 23:34:00,
2013-10-24 19:39:00,34.6,27.8,30.28,WNW,294,1.0,1.0,76,0.00,OVC,,0.01,WeatherDisplay:10.37,2013-10-24 23:39:00,
2013-10-24 19:44:00,34.4,27.6,30.28,WNW,294,0.0,0.0,76,0.00,OVC,,0.01,WeatherDisplay:10.37,2013-10-24 23:44:00,
2013-10-24 19:49:00,34.4,27.6,30.28,WNW,294,3.5,3.5,76,0.00,OVC,,0.01,WeatherDisplay:10.37,2013-10-24 23:49:00,
2013-10-24 19:54:00,34.4,27.9,30.28,WNW,294,0.0,0.0,77,0.00,OVC,,0.01,WeatherDisplay:10.37,2013-10-24 23:54:00,
2013-10-24 19:59:00,34.4,27.9,30.28,WNW,294,1.2,1.2,77,0.00,OVC,,0.01,WeatherDisplay:10.37,2013-10-24 23:59:00,
2013-10-24 20:04:00,34.4,27.9,30.29,WNW,294,0.0,0.0,77,0.00,BKN,,0.01,WeatherDisplay:10.37,2013-10-25 00:04:00,
2013-10-24 20:09:00,34.4,28.2,30.29,WNW,294,3.5,3.5,78,0.00,BKN,,0.01,WeatherDisplay:10.37,2013-10-25 00:09:00,
2013-10-24 20:14:00,34.4,28.2,30.29,WNW,295,4.0,4.0,78,0.00,BKN,,0.01,WeatherDisplay:10.37,2013-10-25 00:14:00,
2013-10-24 20:19:00,34.4,28.2,30.29,WNW,294,2.3,2.3,78,0.00,BKN,,0.01,WeatherDisplay:10.37,2013-10-25 00:19:00,
2013-10-24 20:24:00,34.4,28.2,30.29,WNW,294,1.2,0.0,78,0.00,BKN,,0.01,WeatherDisplay:10.37,2013-10-25 00:24:00,
2013-10-24 20:29:00,34.4,28.2,30.30,WNW,294,1.2,0.0,78,0.00,BKN,,0.01,WeatherDisplay:10.37,2013-10-25 00:29:00,
2013-10-24 20:34:00,34.4,28.2,30.30,WNW,294,2.3,2.3,78,0.00,BKN,,0.01,WeatherDisplay:10.37,2013-10-25 00:34:00,
2013-10-24 20:39:00,34.4,28.2,30.30,WNW,294,0.0,0.0,78,0.00,BKN,,0.01,WeatherDisplay:10.37,2013-10-25 00:39:00,
2013-10-24 20:44:00,34.4,28.6,30.30,WNW,294,0.0,0.0,79,0.00,BKN,,0.01,WeatherDisplay:10.37,2013-10-25 00:44:00,
2013-10-24 20:49:00,34.5,28.7,30.30,WNW,295,4.0,4.0,79,0.00,BKN,,0.01,WeatherDisplay:10.37,2013-10-25 00:49:00,
2013-10-24 20:54:00,34.6,28.4,30.30,WNW,295,2.0,2.0,78,0.00,BKN,,0.01,WeatherDisplay:10.37,2013-10-25 00:54:00,
2013-10-24 20:59:00,34.7,28.2,30.30,WNW,295,3.5,3.5,77,0.00,BKN,,0.01,WeatherDisplay:10.37,2013-10-25 00:59:00,
2013-10-24 21:04:00,34.8,28.3,30.30,WNW,299,1.2,0.0,77,0.00,OVC,,0.01,WeatherDisplay:10.37,2013-10-25 01:04:00,
2013-10-24 21:09:00,35.0,28.2,30.30,WNW,295,3.5,3.5,76,0.00,OVC,,0.01,WeatherDisplay:10.37,2013-10-25 01:09:00,
2013-10-24 21:14:00,35.1,28.0,30.30,NW,309,5.0,5.0,75,0.00,OVC,,0.01,WeatherDisplay:10.37,2013-10-25 01:14:00,
2013-10-24 21:19:00,35.1,27.6,30.31,NW,309,2.3,0.0,74,0.00,OVC,,0.01,WeatherDisplay:10.37,2013-10-25 01:19:00,
2013-10-24 21:24:00,35.2,27.7,30.31,NW,307,4.0,4.0,74,0.00,OVC,,0.01,WeatherDisplay:10.37,2013-10-25 01:24:00,
2013-10-24 21:29:00,35.2,27.4,30.31,NW,307,3.5,3.5,73,0.00,OVC,,0.01,WeatherDisplay:10.37,2013-10-25 01:29:00,
2013-10-24 21:34:00,35.2,27.4,30.31,NW,314,4.0,4.0,73,0.00,OVC,,0.01,WeatherDisplay:10.37,2013-10-25 01:34:00,
2013-10-24 21:39:00,35.3,27.5,30.31,NW,315,1.2,1.2,73,0.00,OVC,,0.01,WeatherDisplay:10.37,2013-10-25 01:39:00,
2013-10-24 21:44:00,35.3,27.8,30.31,NW,316,4.0,4.0,74,0.00,OVC,,0.01,WeatherDisplay:10.37,2013-10-25 01:44:00,
2013-10-24 21:49:00,35.3,27.8,30.31,NW,315,4.0,4.0,74,0.00,OVC,,0.01,WeatherDisplay:10.37,2013-10-25 01:49:00,
2013-10-24 21:54:00,35.2,27.7,30.31,NW,305,5.0,5.0,74,0.00,OVC,,0.01,WeatherDisplay:10.37,2013-10-25 01:54:00,
2013-10-24 21:59:00,35.2,27.7,30.32,NW,305,1.0,1.0,74,0.00,OVC,,0.01,WeatherDisplay:10.37,2013-10-25 01:59:00,
2013-10-24 22:04:00,35.2,27.7,30.32,NW,306,2.3,0.0,74,0.00,OVC,,0.01,WeatherDisplay:10.37,2013-10-25 02:04:00,
2013-10-24 22:09:00,35.3,27.8,30.32,NW,308,3.5,3.5,74,0.00,OVC,,0.01,WeatherDisplay:10.37,2013-10-25 02:09:00,
2013-10-24 22:14:00,35.3,27.8,30.32,NW,305,4.0,4.0,74,0.00,OVC,,0.01,WeatherDisplay:10.37,2013-10-25 02:14:00,
2013-10-24 22:19:00,35.4,27.9,30.32,North,352,3.5,3.5,74,0.00,OVC,,0.01,WeatherDisplay:10.37,2013-10-25 02:19:00,
2013-10-24 22:24:00,35.4,27.9,30.32,North,349,3.5,0.0,74,0.00,OVC,,0.01,WeatherDisplay:10.37,2013-10-25 02:24:00,
2013-10-24 22:29:00,35.4,27.9,30.32,NNW,347,4.0,4.0,74,0.00,OVC,,0.01,WeatherDisplay:10.37,2013-10-25 02:29:00,
2013-10-24 22:35:00,35.4,27.9,30.33,NNW,347,4.0,4.0,74,0.00,OVC,,0.01,WeatherDisplay:10.37,2013-10-25 02:35:00,
2013-10-24 22:40:00,35.4,27.9,30.33,NNW,341,4.0,4.0,74,0.00,OVC,,0.01,WeatherDisplay:10.37,2013-10-25 02:40:00,
2013-10-24 22:45:00,35.4,27.9,30.33,NNW,338,4.0,4.0,74,0.00,OVC,,0.01,WeatherDisplay:10.37,2013-10-25 02:45:00,
2013-10-24 22:50:00,35.5,28.0,30.33,NNW,340,4.0,4.0,74,0.00,OVC,,0.01,WeatherDisplay:10.37,2013-10-25 02:50:00,
2013-10-24 22:55:00,35.5,28.0,30.33,NNW,338,4.0,4.0,74,0.00,OVC,,0.01,WeatherDisplay:10.37,2013-10-25 02:55:00,
2013-10-24 23:00:00,35.5,28.4,30.33,NNW,339,2.0,2.0,75,0.00,OVC,,0.01,WeatherDisplay:10.37,2013-10-25 03:00:00,
2013-10-24 23:05:00,35.5,28.4,30.33,NNW,343,1.2,1.2,75,0.00,OVC,,0.01,WeatherDisplay:10.37,2013-10-25 03:05:00,
2013-10-24 23:10:00,35.5,28.4,30.33,North,7,4.6,4.6,75,0.00,OVC,,0.01,WeatherDisplay:10.37,2013-10-25 03:10:00,
2013-10-24 23:15:00,35.5,28.4,30.33,North,7,2.3,2.3,75,0.00,OVC,,0.01,WeatherDisplay:10.37,2013-10-25 03:15:00,
2013-10-24 23:20:00,35.5,28.4,30.34,NNW,337,3.5,3.5,75,0.00,OVC,,0.01,WeatherDisplay:10.37,2013-10-25 03:20:00,
2013-10-24 23:25:00,35.5,28.7,30.34,North,354,3.5,3.5,76,0.00,OVC,,0.01,WeatherDisplay:10.37,2013-10-25 03:25:00,
2013-10-24 23:30:00,35.5,28.7,30.34,North,355,3.5,3.5,76,0.00,OVC,,0.01,WeatherDisplay:10.37,2013-10-25 03:30:00,
2013-10-24 23:35:00,35.5,28.7,30.34,North,355,2.3,2.3,76,0.00,OVC,,0.01,WeatherDisplay:10.37,2013-10-25 03:35:00,
2013-10-24 23:40:00,35.4,28.6,30.34,North,352,3.5,3.5,76,0.00,OVC,,0.01,WeatherDisplay:10.37,2013-10-25 03:40:00,
2013-10-24 23:45:00,35.4,28.6,30.34,North,353,3.0,3.0,76,0.00,OVC,,0.01,WeatherDisplay:10.37,2013-10-25 03:45:00,
2013-10-24 23:50:00,35.4,28.6,30.34,North,355,1.2,0.0,76,0.00,OVC,,0.01,WeatherDisplay:10.37,2013-10-25 03:50:00,
2013-10-24 23:55:00,35.4,28.9,30.34,North,355,3.5,3.5,77,0.00,OVC,,0.01,WeatherDisplay:10.37,2013-10-25 03:55:00,